createdAt,value
2022-08-08T00:02:37.899Z,72.7
2022-08-08T00:22:39.709Z,74.5
2022-08-08T00:42:38.182Z,77
2022-08-08T01:03:16.057Z,79.8
2022-08-08T01:22:37.999Z,81
2022-08-08T01:42:37.922Z,82.5
2022-08-08T02:02:40.131Z,82.5
2022-08-08T02:22:45.948Z,83.7
2022-08-08T02:42:37.598Z,86.2
2022-08-08T03:02:37.539Z,87.6
2022-08-08T03:22:40.734Z,88.7
2022-08-08T03:42:37.583Z,88.7
2022-08-08T04:02:47.121Z,90.8
2022-08-08T05:02:37.723Z,92
2022-08-08T05:22:37.300Z,91.7
2022-08-08T05:42:37.246Z,87.6
2022-08-08T06:22:37.174Z,81.2
2022-08-08T06:42:37.141Z,77.1
2022-08-08T07:02:37.113Z,74.5
2022-08-08T07:22:37.057Z,70.8
2022-08-08T07:42:37.019Z,65.7
2022-08-08T08:02:38.433Z,62.9
2022-08-08T08:42:37.174Z,51.4
2022-08-08T09:02:37.131Z,46.7
2022-08-08T09:22:39.360Z,44.5
2022-08-08T09:42:43.976Z,44.3
2022-08-08T10:02:36.721Z,39.7
2022-08-08T10:22:36.701Z,38.1
2022-08-08T10:42:37.325Z,37.8
2022-08-08T11:02:36.615Z,36.1
2022-08-08T11:22:36.554Z,34.1
2022-08-08T11:42:36.929Z,35.2
2022-08-08T12:42:36.614Z,35.6
2022-08-08T13:02:36.983Z,34.7
2022-08-08T13:22:36.299Z,33.5
2022-08-08T13:42:36.302Z,33.7
2022-08-08T14:02:36.282Z,34.3
2022-08-08T14:22:36.178Z,32.8
2022-08-08T14:42:36.405Z,32.9
2022-08-08T15:02:36.358Z,34.4
2022-08-08T15:22:36.236Z,35.5
2022-08-08T16:02:36.290Z,36.3
2022-08-08T16:42:35.925Z,38.6
2022-08-08T17:02:38.156Z,38.9
2022-08-08T17:22:39.557Z,39.4
2022-08-08T17:42:36.033Z,39.4
2022-08-08T18:02:35.909Z,41.2
2022-08-08T19:22:35.586Z,49.7
2022-08-08T19:42:35.511Z,52.1
2022-08-08T21:02:35.623Z,59.8
2022-08-08T21:42:35.259Z,64
2022-08-08T22:22:36.084Z,69.1
2022-08-08T23:02:35.106Z,73.9
2022-08-08T23:22:35.058Z,77
2022-08-08T23:42:35.246Z,79.4
